sensor_id;sensor_type;location;lat;lon;timestamp;P1;durP1;ratioP1;P2;durP2;ratioP2
63394;SDS011;49531;-34.520;150.798;2022-08-03T00:01:04;0.98;;;0.80;;
63394;SDS011;49531;-34.520;150.798;2022-08-03T00:03:31;2.03;;;1.00;;
63394;SDS011;49531;-34.520;150.798;2022-08-03T00:05:58;1.23;;;1.00;;
63394;SDS011;49531;-34.520;150.798;2022-08-03T00:08:26;3.95;;;1.00;;
63394;SDS011;49531;-34.520;150.798;2022-08-03T00:10:53;5.20;;;1.00;;
63394;SDS011;49531;-34.520;150.798;2022-08-03T00:13:20;3.05;;;0.90;;
63394;SDS011;49531;-34.520;150.798;2022-08-03T00:15:47;4.45;;;1.02;;
63394;SDS011;49531;-34.520;150.798;2022-08-03T00:18:14;4.38;;;1.20;;
63394;SDS011;49531;-34.520;150.798;2022-08-03T00:20:41;3.00;;;1.10;;
63394;SDS011;49531;-34.520;150.798;2022-08-03T00:23:08;10.48;;;1.15;;
63394;SDS011;49531;-34.520;150.798;2022-08-03T00:25:36;6.47;;;1.00;;
63394;SDS011;49531;-34.520;150.798;2022-08-03T00:28:03;2.63;;;1.00;;
63394;SDS011;49531;-34.520;150.798;2022-08-03T00:30:31;4.85;;;0.85;;
63394;SDS011;49531;-34.520;150.798;2022-08-03T00:32:58;2.70;;;1.10;;
63394;SDS011;49531;-34.520;150.798;2022-08-03T00:35:26;1.05;;;0.88;;
63394;SDS011;49531;-34.520;150.798;2022-08-03T00:37:53;2.88;;;0.88;;
63394;SDS011;49531;-34.520;150.798;2022-08-03T00:40:20;4.93;;;0.85;;
63394;SDS011;49531;-34.520;150.798;2022-08-03T00:42:48;1.17;;;0.90;;
63394;SDS011;49531;-34.520;150.798;2022-08-03T00:45:22;1.65;;;0.88;;
63394;SDS011;49531;-34.520;150.798;2022-08-03T00:47:50;2.75;;;1.00;;
63394;SDS011;49531;-34.520;150.798;2022-08-03T00:50:18;1.17;;;1.08;;
63394;SDS011;49531;-34.520;150.798;2022-08-03T00:52:47;1.50;;;0.95;;
63394;SDS011;49531;-34.520;150.798;2022-08-03T00:55:16;0.75;;;0.75;;
63394;SDS011;49531;-34.520;150.798;2022-08-03T00:57:44;1.20;;;0.98;;
63394;SDS011;49531;-34.520;150.798;2022-08-03T01:00:12;1.77;;;1.00;;
63394;SDS011;49531;-34.520;150.798;2022-08-03T01:02:42;1.27;;;0.90;;
63394;SDS011;49531;-34.520;150.798;2022-08-03T01:05:09;1.60;;;0.90;;
63394;SDS011;49531;-34.520;150.798;2022-08-03T01:10:16;1.30;;;0.90;;
63394;SDS011;49531;-34.520;150.798;2022-08-03T01:15:44;1.27;;;0.82;;
63394;SDS011;49531;-34.520;150.798;2022-08-03T01:21:24;0.90;;;0.75;;
63394;SDS011;49531;-34.520;150.798;2022-08-03T01:24:21;2.45;;;0.90;;
63394;SDS011;49531;-34.520;150.798;2022-08-03T01:27:11;3.00;;;0.80;;
63394;SDS011;49531;-34.520;150.798;2022-08-03T01:29:51;2.33;;;1.10;;
63394;SDS011;49531;-34.520;150.798;2022-08-03T01:35:11;1.40;;;0.80;;
63394;SDS011;49531;-34.520;150.798;2022-08-03T01:37:57;1.65;;;0.90;;
63394;SDS011;49531;-34.520;150.798;2022-08-03T01:40:31;1.70;;;1.00;;
63394;SDS011;49531;-34.520;150.798;2022-08-03T01:43:02;1.52;;;1.05;;
63394;SDS011;49531;-34.520;150.798;2022-08-03T01:45:31;1.00;;;0.90;;
63394;SDS011;49531;-34.520;150.798;2022-08-03T01:47:59;2.63;;;0.90;;
63394;SDS011;49531;-34.520;150.798;2022-08-03T01:50:28;1.10;;;1.00;;
63394;SDS011;49531;-34.520;150.798;2022-08-03T01:52:58;6.28;;;0.95;;
63394;SDS011;49531;-34.520;150.798;2022-08-03T01:55:26;1.00;;;0.90;;
63394;SDS011;49531;-34.520;150.798;2022-08-03T01:57:56;0.93;;;0.88;;
63394;SDS011;49531;-34.520;150.798;2022-08-03T02:00:25;1.25;;;0.85;;
63394;SDS011;49531;-34.520;150.798;2022-08-03T02:02:52;1.30;;;0.98;;
63394;SDS011;49531;-34.520;150.798;2022-08-03T02:05:21;1.05;;;0.95;;
63394;SDS011;49531;-34.520;150.798;2022-08-03T02:07:50;1.65;;;1.00;;
63394;SDS011;49531;-34.520;150.798;2022-08-03T02:10:19;1.27;;;0.90;;
63394;SDS011;49531;-34.520;150.798;2022-08-03T02:12:47;1.90;;;1.00;;
63394;SDS011;49531;-34.520;150.798;2022-08-03T02:15:15;1.20;;;0.93;;
63394;SDS011;49531;-34.520;150.798;2022-08-03T02:17:45;1.40;;;1.00;;
63394;SDS011;49531;-34.520;150.798;2022-08-03T02:20:13;1.55;;;0.90;;
63394;SDS011;49531;-34.520;150.798;2022-08-03T02:22:42;2.63;;;1.00;;
63394;SDS011;49531;-34.520;150.798;2022-08-03T02:25:12;1.05;;;0.90;;
63394;SDS011;49531;-34.520;150.798;2022-08-03T02:27:45;1.23;;;0.80;;
63394;SDS011;49531;-34.520;150.798;2022-08-03T02:30:17;1.55;;;0.90;;
63394;SDS011;49531;-34.520;150.798;2022-08-03T02:32:47;3.40;;;0.93;;
63394;SDS011;49531;-34.520;150.798;2022-08-03T02:35:21;0.90;;;0.90;;
63394;SDS011;49531;-34.520;150.798;2022-08-03T02:37:52;1.50;;;1.00;;
63394;SDS011;49531;-34.520;150.798;2022-08-03T02:40:24;1.80;;;1.00;;
63394;SDS011;49531;-34.520;150.798;2022-08-03T02:42:54;1.58;;;1.13;;
63394;SDS011;49531;-34.520;150.798;2022-08-03T02:45:28;1.20;;;0.80;;
63394;SDS011;49531;-34.520;150.798;2022-08-03T02:48:02;1.15;;;0.90;;
63394;SDS011;49531;-34.520;150.798;2022-08-03T02:50:30;1.27;;;0.90;;
63394;SDS011;49531;-34.520;150.798;2022-08-03T02:53:00;1.27;;;0.95;;
63394;SDS011;49531;-34.520;150.798;2022-08-03T02:55:29;1.15;;;0.85;;
63394;SDS011;49531;-34.520;150.798;2022-08-03T02:57:59;1.70;;;0.93;;
63394;SDS011;49531;-34.520;150.798;2022-08-03T03:00:28;1.95;;;1.00;;
63394;SDS011;49531;-34.520;150.798;2022-08-03T03:02:59;2.60;;;0.98;;
63394;SDS011;49531;-34.520;150.798;2022-08-03T03:05:29;2.42;;;0.90;;
63394;SDS011;49531;-34.520;150.798;2022-08-03T03:07:57;1.10;;;0.95;;
63394;SDS011;49531;-34.520;150.798;2022-08-03T03:10:24;3.80;;;1.00;;
63394;SDS011;49531;-34.520;150.798;2022-08-03T03:12:53;3.20;;;1.10;;
63394;SDS011;49531;-34.520;150.798;2022-08-03T03:15:22;2.42;;;0.80;;
63394;SDS011;49531;-34.520;150.798;2022-08-03T03:17:51;1.58;;;1.10;;
63394;SDS011;49531;-34.520;150.798;2022-08-03T03:20:22;1.65;;;0.77;;
63394;SDS011;49531;-34.520;150.798;2022-08-03T03:22:50;1.58;;;0.90;;
63394;SDS011;49531;-34.520;150.798;2022-08-03T03:25:17;2.53;;;1.00;;
63394;SDS011;49531;-34.520;150.798;2022-08-03T03:27:46;3.28;;;1.00;;
63394;SDS011;49531;-34.520;150.798;2022-08-03T03:30:14;1.50;;;1.00;;
63394;SDS011;49531;-34.520;150.798;2022-08-03T03:32:41;1.17;;;0.93;;
63394;SDS011;49531;-34.520;150.798;2022-08-03T03:35:08;1.92;;;1.00;;
63394;SDS011;49531;-34.520;150.798;2022-08-03T03:37:36;1.20;;;1.10;;
63394;SDS011;49531;-34.520;150.798;2022-08-03T03:40:03;2.00;;;1.10;;
63394;SDS011;49531;-34.520;150.798;2022-08-03T03:42:33;1.58;;;1.10;;
63394;SDS011;49531;-34.520;150.798;2022-08-03T03:45:03;1.40;;;1.08;;
63394;SDS011;49531;-34.520;150.798;2022-08-03T03:47:32;1.23;;;1.13;;
63394;SDS011;49531;-34.520;150.798;2022-08-03T03:50:03;1.80;;;1.10;;
63394;SDS011;49531;-34.520;150.798;2022-08-03T03:52:31;3.33;;;1.30;;
63394;SDS011;49531;-34.520;150.798;2022-08-03T03:54:59;1.20;;;1.08;;
63394;SDS011;49531;-34.520;150.798;2022-08-03T03:57:26;2.08;;;1.10;;
63394;SDS011;49531;-34.520;150.798;2022-08-03T03:59:53;2.35;;;1.15;;
63394;SDS011;49531;-34.520;150.798;2022-08-03T04:02:20;1.30;;;1.05;;
63394;SDS011;49531;-34.520;150.798;2022-08-03T04:04:47;2.15;;;1.13;;
63394;SDS011;49531;-34.520;150.798;2022-08-03T04:07:34;1.75;;;1.15;;
63394;SDS011;49531;-34.520;150.798;2022-08-03T04:10:41;1.65;;;1.00;;
63394;SDS011;49531;-34.520;150.798;2022-08-03T04:13:59;1.67;;;1.00;;
63394;SDS011;49531;-34.520;150.798;2022-08-03T04:16:26;5.32;;;1.30;;
63394;SDS011;49531;-34.520;150.798;2022-08-03T04:18:57;1.92;;;1.10;;
63394;SDS011;49531;-34.520;150.798;2022-08-03T04:21:34;1.98;;;1.30;;
63394;SDS011;49531;-34.520;150.798;2022-08-03T04:24:06;5.40;;;1.27;;
63394;SDS011;49531;-34.520;150.798;2022-08-03T04:26:36;1.60;;;1.17;;
63394;SDS011;49531;-34.520;150.798;2022-08-03T04:29:05;2.85;;;1.10;;
63394;SDS011;49531;-34.520;150.798;2022-08-03T04:31:35;2.85;;;1.17;;
63394;SDS011;49531;-34.520;150.798;2022-08-03T04:34:05;3.05;;;1.17;;
63394;SDS011;49531;-34.520;150.798;2022-08-03T04:36:35;3.25;;;1.10;;
63394;SDS011;49531;-34.520;150.798;2022-08-03T04:39:12;1.23;;;1.10;;
63394;SDS011;49531;-34.520;150.798;2022-08-03T04:41:43;3.67;;;1.10;;
63394;SDS011;49531;-34.520;150.798;2022-08-03T04:44:12;1.50;;;1.10;;
63394;SDS011;49531;-34.520;150.798;2022-08-03T04:46:40;1.58;;;1.05;;
63394;SDS011;49531;-34.520;150.798;2022-08-03T04:49:08;1.58;;;1.20;;
63394;SDS011;49531;-34.520;150.798;2022-08-03T04:51:36;2.42;;;1.10;;
63394;SDS011;49531;-34.520;150.798;2022-08-03T04:54:05;2.67;;;1.20;;
63394;SDS011;49531;-34.520;150.798;2022-08-03T04:56:32;1.55;;;0.90;;
63394;SDS011;49531;-34.520;150.798;2022-08-03T04:58:59;1.35;;;1.20;;
63394;SDS011;49531;-34.520;150.798;2022-08-03T05:01:27;2.75;;;1.20;;
63394;SDS011;49531;-34.520;150.798;2022-08-03T05:03:54;2.25;;;1.00;;
63394;SDS011;49531;-34.520;150.798;2022-08-03T05:06:21;1.75;;;0.93;;
63394;SDS011;49531;-34.520;150.798;2022-08-03T05:08:49;1.30;;;1.10;;
63394;SDS011;49531;-34.520;150.798;2022-08-03T05:11:16;1.88;;;0.93;;
63394;SDS011;49531;-34.520;150.798;2022-08-03T05:13:43;1.50;;;1.00;;
63394;SDS011;49531;-34.520;150.798;2022-08-03T05:16:11;3.42;;;1.08;;
63394;SDS011;49531;-34.520;150.798;2022-08-03T05:18:38;1.35;;;0.90;;
63394;SDS011;49531;-34.520;150.798;2022-08-03T05:21:07;4.70;;;1.40;;
63394;SDS011;49531;-34.520;150.798;2022-08-03T05:23:35;1.38;;;1.00;;
63394;SDS011;49531;-34.520;150.798;2022-08-03T05:26:02;1.83;;;1.00;;
63394;SDS011;49531;-34.520;150.798;2022-08-03T05:28:29;1.55;;;1.10;;
63394;SDS011;49531;-34.520;150.798;2022-08-03T05:30:56;2.38;;;1.00;;
63394;SDS011;49531;-34.520;150.798;2022-08-03T05:33:24;2.17;;;0.93;;
63394;SDS011;49531;-34.520;150.798;2022-08-03T05:35:51;1.25;;;0.93;;
63394;SDS011;49531;-34.520;150.798;2022-08-03T05:38:18;1.45;;;1.15;;
63394;SDS011;49531;-34.520;150.798;2022-08-03T05:40:45;1.80;;;1.00;;
63394;SDS011;49531;-34.520;150.798;2022-08-03T05:43:12;1.60;;;1.00;;
63394;SDS011;49531;-34.520;150.798;2022-08-03T05:45:39;1.08;;;0.98;;
63394;SDS011;49531;-34.520;150.798;2022-08-03T05:48:06;1.38;;;1.00;;
63394;SDS011;49531;-34.520;150.798;2022-08-03T05:50:33;2.08;;;1.00;;
63394;SDS011;49531;-34.520;150.798;2022-08-03T05:53:01;2.10;;;1.00;;
63394;SDS011;49531;-34.520;150.798;2022-08-03T05:55:28;2.75;;;0.90;;
63394;SDS011;49531;-34.520;150.798;2022-08-03T05:57:55;1.33;;;0.80;;
63394;SDS011;49531;-34.520;150.798;2022-08-03T06:00:22;1.55;;;1.15;;
63394;SDS011;49531;-34.520;150.798;2022-08-03T06:02:49;1.35;;;0.82;;
63394;SDS011;49531;-34.520;150.798;2022-08-03T06:05:16;1.42;;;1.00;;
63394;SDS011;49531;-34.520;150.798;2022-08-03T06:07:43;1.65;;;1.00;;
63394;SDS011;49531;-34.520;150.798;2022-08-03T06:10:11;1.58;;;1.10;;
63394;SDS011;49531;-34.520;150.798;2022-08-03T06:12:38;2.03;;;1.10;;
63394;SDS011;49531;-34.520;150.798;2022-08-03T06:15:06;1.20;;;1.00;;
63394;SDS011;49531;-34.520;150.798;2022-08-03T06:17:33;1.65;;;0.90;;
63394;SDS011;49531;-34.520;150.798;2022-08-03T06:20:09;2.38;;;1.00;;
63394;SDS011;49531;-34.520;150.798;2022-08-03T06:22:36;1.30;;;0.95;;
63394;SDS011;49531;-34.520;150.798;2022-08-03T06:25:04;1.10;;;1.00;;
63394;SDS011;49531;-34.520;150.798;2022-08-03T06:27:31;1.55;;;1.08;;
63394;SDS011;49531;-34.520;150.798;2022-08-03T06:29:58;1.90;;;1.10;;
63394;SDS011;49531;-34.520;150.798;2022-08-03T06:32:25;3.22;;;1.10;;
63394;SDS011;49531;-34.520;150.798;2022-08-03T06:34:52;1.67;;;1.10;;
63394;SDS011;49531;-34.520;150.798;2022-08-03T06:37:19;2.05;;;1.05;;
63394;SDS011;49531;-34.520;150.798;2022-08-03T06:39:47;2.08;;;1.05;;
63394;SDS011;49531;-34.520;150.798;2022-08-03T06:42:14;3.38;;;1.13;;
63394;SDS011;49531;-34.520;150.798;2022-08-03T06:44:41;2.20;;;1.23;;
63394;SDS011;49531;-34.520;150.798;2022-08-03T06:47:08;2.13;;;1.33;;
63394;SDS011;49531;-34.520;150.798;2022-08-03T06:49:36;3.90;;;1.58;;
63394;SDS011;49531;-34.520;150.798;2022-08-03T06:52:03;3.70;;;1.50;;
63394;SDS011;49531;-34.520;150.798;2022-08-03T06:54:30;4.78;;;1.52;;
63394;SDS011;49531;-34.520;150.798;2022-08-03T06:56:57;3.85;;;1.40;;
63394;SDS011;49531;-34.520;150.798;2022-08-03T06:59:24;8.27;;;1.58;;
63394;SDS011;49531;-34.520;150.798;2022-08-03T07:01:51;5.28;;;1.70;;
63394;SDS011;49531;-34.520;150.798;2022-08-03T07:04:18;3.88;;;1.63;;
63394;SDS011;49531;-34.520;150.798;2022-08-03T07:06:45;9.18;;;1.65;;
63394;SDS011;49531;-34.520;150.798;2022-08-03T07:09:12;4.78;;;1.55;;
63394;SDS011;49531;-34.520;150.798;2022-08-03T07:11:39;7.22;;;1.75;;
63394;SDS011;49531;-34.520;150.798;2022-08-03T07:14:06;2.92;;;1.70;;
63394;SDS011;49531;-34.520;150.798;2022-08-03T07:16:33;5.70;;;1.85;;
63394;SDS011;49531;-34.520;150.798;2022-08-03T07:19:00;4.30;;;1.80;;
63394;SDS011;49531;-34.520;150.798;2022-08-03T07:21:27;4.22;;;1.80;;
63394;SDS011;49531;-34.520;150.798;2022-08-03T07:23:54;5.60;;;1.92;;
63394;SDS011;49531;-34.520;150.798;2022-08-03T07:26:21;5.68;;;1.95;;
63394;SDS011;49531;-34.520;150.798;2022-08-03T07:28:48;5.43;;;1.90;;
63394;SDS011;49531;-34.520;150.798;2022-08-03T07:31:15;4.15;;;1.90;;
63394;SDS011;49531;-34.520;150.798;2022-08-03T07:33:42;4.25;;;2.42;;
63394;SDS011;49531;-34.520;150.798;2022-08-03T07:36:09;6.57;;;3.00;;
63394;SDS011;49531;-34.520;150.798;2022-08-03T07:38:36;5.25;;;2.85;;
63394;SDS011;49531;-34.520;150.798;2022-08-03T07:41:03;5.15;;;2.70;;
63394;SDS011;49531;-34.520;150.798;2022-08-03T07:43:30;4.25;;;2.67;;
63394;SDS011;49531;-34.520;150.798;2022-08-03T07:45:57;4.28;;;2.67;;
63394;SDS011;49531;-34.520;150.798;2022-08-03T07:48:24;4.70;;;2.78;;
63394;SDS011;49531;-34.520;150.798;2022-08-03T07:50:51;6.53;;;2.40;;
63394;SDS011;49531;-34.520;150.798;2022-08-03T07:53:18;4.82;;;2.50;;
63394;SDS011;49531;-34.520;150.798;2022-08-03T07:55:45;5.60;;;2.63;;
63394;SDS011;49531;-34.520;150.798;2022-08-03T07:58:12;5.32;;;2.40;;
63394;SDS011;49531;-34.520;150.798;2022-08-03T08:00:42;3.90;;;2.20;;
63394;SDS011;49531;-34.520;150.798;2022-08-03T08:03:09;5.20;;;2.30;;
63394;SDS011;49531;-34.520;150.798;2022-08-03T08:05:38;4.07;;;2.30;;
63394;SDS011;49531;-34.520;150.798;2022-08-03T08:08:05;5.72;;;2.30;;
63394;SDS011;49531;-34.520;150.798;2022-08-03T08:10:33;4.72;;;2.10;;
63394;SDS011;49531;-34.520;150.798;2022-08-03T08:13:00;5.82;;;2.20;;
63394;SDS011;49531;-34.520;150.798;2022-08-03T08:15:28;3.28;;;2.00;;
63394;SDS011;49531;-34.520;150.798;2022-08-03T08:17:57;5.88;;;2.13;;
63394;SDS011;49531;-34.520;150.798;2022-08-03T08:20:26;3.55;;;2.05;;
63394;SDS011;49531;-34.520;150.798;2022-08-03T08:22:56;3.80;;;2.03;;
63394;SDS011;49531;-34.520;150.798;2022-08-03T08:25:28;3.17;;;1.90;;
63394;SDS011;49531;-34.520;150.798;2022-08-03T08:27:55;5.18;;;2.00;;
63394;SDS011;49531;-34.520;150.798;2022-08-03T08:30:26;3.63;;;1.85;;
63394;SDS011;49531;-34.520;150.798;2022-08-03T08:32:53;3.63;;;1.80;;
63394;SDS011;49531;-34.520;150.798;2022-08-03T08:35:20;5.40;;;1.90;;
63394;SDS011;49531;-34.520;150.798;2022-08-03T08:37:47;3.67;;;2.05;;
63394;SDS011;49531;-34.520;150.798;2022-08-03T08:40:14;5.97;;;1.95;;
63394;SDS011;49531;-34.520;150.798;2022-08-03T08:42:42;3.28;;;1.92;;
63394;SDS011;49531;-34.520;150.798;2022-08-03T08:45:10;2.50;;;1.70;;
63394;SDS011;49531;-34.520;150.798;2022-08-03T08:47:38;3.17;;;1.75;;
63394;SDS011;49531;-34.520;150.798;2022-08-03T08:50:09;2.78;;;1.60;;
63394;SDS011;49531;-34.520;150.798;2022-08-03T08:52:38;2.90;;;1.70;;
63394;SDS011;49531;-34.520;150.798;2022-08-03T08:55:08;3.47;;;1.70;;
63394;SDS011;49531;-34.520;150.798;2022-08-03T08:57:48;3.03;;;1.58;;
63394;SDS011;49531;-34.520;150.798;2022-08-03T09:00:17;3.80;;;1.58;;
63394;SDS011;49531;-34.520;150.798;2022-08-03T09:02:44;3.40;;;1.40;;
63394;SDS011;49531;-34.520;150.798;2022-08-03T09:05:16;2.92;;;1.70;;
63394;SDS011;49531;-34.520;150.798;2022-08-03T09:07:45;3.00;;;1.60;;
63394;SDS011;49531;-34.520;150.798;2022-08-03T09:10:14;4.35;;;1.80;;
63394;SDS011;49531;-34.520;150.798;2022-08-03T09:12:50;1.73;;;1.33;;
63394;SDS011;49531;-34.520;150.798;2022-08-03T09:17:53;2.97;;;1.65;;
63394;SDS011;49531;-34.520;150.798;2022-08-03T09:20:22;2.35;;;1.40;;
63394;SDS011;49531;-34.520;150.798;2022-08-03T09:22:52;2.40;;;1.48;;
63394;SDS011;49531;-34.520;150.798;2022-08-03T09:25:27;2.13;;;1.40;;
63394;SDS011;49531;-34.520;150.798;2022-08-03T09:28:08;3.70;;;1.63;;
63394;SDS011;49531;-34.520;150.798;2022-08-03T09:30:37;3.30;;;1.70;;
63394;SDS011;49531;-34.520;150.798;2022-08-03T09:33:10;2.47;;;1.40;;
63394;SDS011;49531;-34.520;150.798;2022-08-03T09:35:40;2.38;;;1.58;;
63394;SDS011;49531;-34.520;150.798;2022-08-03T09:38:09;3.03;;;1.60;;
63394;SDS011;49531;-34.520;150.798;2022-08-03T09:40:39;2.50;;;1.50;;
63394;SDS011;49531;-34.520;150.798;2022-08-03T09:43:07;2.75;;;1.40;;
63394;SDS011;49531;-34.520;150.798;2022-08-03T09:45:35;2.20;;;1.38;;
63394;SDS011;49531;-34.520;150.798;2022-08-03T09:48:22;1.77;;;1.48;;
63394;SDS011;49531;-34.520;150.798;2022-08-03T09:50:55;3.20;;;1.30;;
63394;SDS011;49531;-34.520;150.798;2022-08-03T09:53:24;1.70;;;1.40;;
63394;SDS011;49531;-34.520;150.798;2022-08-03T09:55:56;2.00;;;1.33;;
63394;SDS011;49531;-34.520;150.798;2022-08-03T09:58:24;2.00;;;1.40;;
63394;SDS011;49531;-34.520;150.798;2022-08-03T10:00:59;3.33;;;1.70;;
63394;SDS011;49531;-34.520;150.798;2022-08-03T10:03:32;1.85;;;1.40;;
63394;SDS011;49531;-34.520;150.798;2022-08-03T10:06:15;1.65;;;1.40;;
63394;SDS011;49531;-34.520;150.798;2022-08-03T10:09:03;2.30;;;1.38;;
63394;SDS011;49531;-34.520;150.798;2022-08-03T10:11:35;1.70;;;1.30;;
63394;SDS011;49531;-34.520;150.798;2022-08-03T10:14:04;1.80;;;1.48;;
63394;SDS011;49531;-34.520;150.798;2022-08-03T10:16:33;3.20;;;1.50;;
63394;SDS011;49531;-34.520;150.798;2022-08-03T10:19:05;3.53;;;1.50;;
63394;SDS011;49531;-34.520;150.798;2022-08-03T10:21:37;2.10;;;1.60;;
63394;SDS011;49531;-34.520;150.798;2022-08-03T10:24:07;2.65;;;1.38;;
63394;SDS011;49531;-34.520;150.798;2022-08-03T10:26:38;1.83;;;1.45;;
63394;SDS011;49531;-34.520;150.798;2022-08-03T10:29:08;3.65;;;1.40;;
63394;SDS011;49531;-34.520;150.798;2022-08-03T10:31:44;1.60;;;1.38;;
63394;SDS011;49531;-34.520;150.798;2022-08-03T10:34:14;2.47;;;1.60;;
63394;SDS011;49531;-34.520;150.798;2022-08-03T10:36:48;2.33;;;1.60;;
63394;SDS011;49531;-34.520;150.798;2022-08-03T10:39:18;1.85;;;1.55;;
63394;SDS011;49531;-34.520;150.798;2022-08-03T10:41:49;2.72;;;1.88;;
63394;SDS011;49531;-34.520;150.798;2022-08-03T10:44:17;2.10;;;1.65;;
63394;SDS011;49531;-34.520;150.798;2022-08-03T10:46:48;3.08;;;1.60;;
63394;SDS011;49531;-34.520;150.798;2022-08-03T10:49:19;2.25;;;1.60;;
63394;SDS011;49531;-34.520;150.798;2022-08-03T10:51:47;3.63;;;1.80;;
63394;SDS011;49531;-34.520;150.798;2022-08-03T11:00:08;2.85;;;1.60;;
63394;SDS011;49531;-34.520;150.798;2022-08-03T11:05:32;2.53;;;1.80;;
63394;SDS011;49531;-34.520;150.798;2022-08-03T11:10:52;2.45;;;1.60;;
63394;SDS011;49531;-34.520;150.798;2022-08-03T11:13:21;2.30;;;1.65;;
63394;SDS011;49531;-34.520;150.798;2022-08-03T11:15:51;2.13;;;1.65;;
63394;SDS011;49531;-34.520;150.798;2022-08-03T11:18:20;2.72;;;1.60;;
63394;SDS011;49531;-34.520;150.798;2022-08-03T11:20:58;2.60;;;1.80;;
63394;SDS011;49531;-34.520;150.798;2022-08-03T11:23:58;2.70;;;1.88;;
63394;SDS011;49531;-34.520;150.798;2022-08-03T11:26:19;2.37;;;1.87;;
63394;SDS011;49531;-34.520;150.798;2022-08-03T11:28:47;2.28;;;1.70;;
63394;SDS011;49531;-34.520;150.798;2022-08-03T11:34:03;3.33;;;2.03;;
63394;SDS011;49531;-34.520;150.798;2022-08-03T11:39:40;3.20;;;1.70;;
63394;SDS011;49531;-34.520;150.798;2022-08-03T11:44:49;2.70;;;1.75;;
63394;SDS011;49531;-34.520;150.798;2022-08-03T11:47:17;2.05;;;1.70;;
63394;SDS011;49531;-34.520;150.798;2022-08-03T11:49:46;3.03;;;1.60;;
63394;SDS011;49531;-34.520;150.798;2022-08-03T11:52:15;2.05;;;1.70;;
63394;SDS011;49531;-34.520;150.798;2022-08-03T11:54:44;2.67;;;1.70;;
63394;SDS011;49531;-34.520;150.798;2022-08-03T11:57:27;4.28;;;1.80;;
63394;SDS011;49531;-34.520;150.798;2022-08-03T11:59:55;2.83;;;1.63;;
63394;SDS011;49531;-34.520;150.798;2022-08-03T12:02:22;3.28;;;1.80;;
63394;SDS011;49531;-34.520;150.798;2022-08-03T12:04:50;2.75;;;1.67;;
63394;SDS011;49531;-34.520;150.798;2022-08-03T12:07:18;2.75;;;1.60;;
63394;SDS011;49531;-34.520;150.798;2022-08-03T12:12:36;3.10;;;1.70;;
63394;SDS011;49531;-34.520;150.798;2022-08-03T12:15:04;2.35;;;1.70;;
63394;SDS011;49531;-34.520;150.798;2022-08-03T12:17:36;3.72;;;1.90;;
63394;SDS011;49531;-34.520;150.798;2022-08-03T12:20:07;2.20;;;1.67;;
63394;SDS011;49531;-34.520;150.798;2022-08-03T12:22:38;2.15;;;1.60;;
63394;SDS011;49531;-34.520;150.798;2022-08-03T12:25:06;2.30;;;1.70;;
63394;SDS011;49531;-34.520;150.798;2022-08-03T12:27:35;2.05;;;1.67;;
63394;SDS011;49531;-34.520;150.798;2022-08-03T12:30:02;2.63;;;1.85;;
63394;SDS011;49531;-34.520;150.798;2022-08-03T12:32:30;4.45;;;1.67;;
63394;SDS011;49531;-34.520;150.798;2022-08-03T12:34:57;3.55;;;1.63;;
63394;SDS011;49531;-34.520;150.798;2022-08-03T12:37:29;2.38;;;1.70;;
63394;SDS011;49531;-34.520;150.798;2022-08-03T12:39:57;2.22;;;1.70;;
63394;SDS011;49531;-34.520;150.798;2022-08-03T12:42:29;2.45;;;1.58;;
63394;SDS011;49531;-34.520;150.798;2022-08-03T12:44:57;2.05;;;1.55;;
63394;SDS011;49531;-34.520;150.798;2022-08-03T12:47:24;2.58;;;1.65;;
63394;SDS011;49531;-34.520;150.798;2022-08-03T12:49:52;2.47;;;1.73;;
63394;SDS011;49531;-34.520;150.798;2022-08-03T12:52:20;2.55;;;1.52;;
63394;SDS011;49531;-34.520;150.798;2022-08-03T12:54:54;2.28;;;1.67;;
63394;SDS011;49531;-34.520;150.798;2022-08-03T12:57:23;3.53;;;1.55;;
63394;SDS011;49531;-34.520;150.798;2022-08-03T12:59:50;2.13;;;1.60;;
63394;SDS011;49531;-34.520;150.798;2022-08-03T13:02:24;2.50;;;1.75;;
63394;SDS011;49531;-34.520;150.798;2022-08-03T13:04:52;1.70;;;1.50;;
63394;SDS011;49531;-34.520;150.798;2022-08-03T13:07:20;1.90;;;1.52;;
63394;SDS011;49531;-34.520;150.798;2022-08-03T13:09:51;2.60;;;1.55;;
63394;SDS011;49531;-34.520;150.798;2022-08-03T13:14:55;3.28;;;1.60;;
63394;SDS011;49531;-34.520;150.798;2022-08-03T13:17:25;3.25;;;1.60;;
63394;SDS011;49531;-34.520;150.798;2022-08-03T13:19:53;4.15;;;1.70;;
63394;SDS011;49531;-34.520;150.798;2022-08-03T13:22:24;1.75;;;1.60;;
63394;SDS011;49531;-34.520;150.798;2022-08-03T13:24:57;1.80;;;1.50;;
63394;SDS011;49531;-34.520;150.798;2022-08-03T13:27:26;2.17;;;1.60;;
63394;SDS011;49531;-34.520;150.798;2022-08-03T13:29:54;1.83;;;1.40;;
63394;SDS011;49531;-34.520;150.798;2022-08-03T13:32:22;3.20;;;1.70;;
63394;SDS011;49531;-34.520;150.798;2022-08-03T13:34:49;2.35;;;1.60;;
63394;SDS011;49531;-34.520;150.798;2022-08-03T13:37:16;1.85;;;1.60;;
63394;SDS011;49531;-34.520;150.798;2022-08-03T13:39:43;1.95;;;1.50;;
63394;SDS011;49531;-34.520;150.798;2022-08-03T13:42:10;1.50;;;1.38;;
63394;SDS011;49531;-34.520;150.798;2022-08-03T13:44:37;1.63;;;1.50;;
63394;SDS011;49531;-34.520;150.798;2022-08-03T13:47:04;1.85;;;1.60;;
63394;SDS011;49531;-34.520;150.798;2022-08-03T13:49:31;1.98;;;1.60;;
63394;SDS011;49531;-34.520;150.798;2022-08-03T13:51:58;2.45;;;1.60;;
63394;SDS011;49531;-34.520;150.798;2022-08-03T13:54:26;2.40;;;1.50;;
63394;SDS011;49531;-34.520;150.798;2022-08-03T13:56:54;2.38;;;1.70;;
63394;SDS011;49531;-34.520;150.798;2022-08-03T13:59:22;1.90;;;1.60;;
63394;SDS011;49531;-34.520;150.798;2022-08-03T14:01:50;2.47;;;1.63;;
63394;SDS011;49531;-34.520;150.798;2022-08-03T14:04:18;1.85;;;1.50;;
63394;SDS011;49531;-34.520;150.798;2022-08-03T14:06:46;1.88;;;1.50;;
63394;SDS011;49531;-34.520;150.798;2022-08-03T14:09:13;1.85;;;1.65;;
63394;SDS011;49531;-34.520;150.798;2022-08-03T14:11:42;2.75;;;1.60;;
63394;SDS011;49531;-34.520;150.798;2022-08-03T14:14:10;1.77;;;1.67;;
63394;SDS011;49531;-34.520;150.798;2022-08-03T14:16:37;1.92;;;1.50;;
63394;SDS011;49531;-34.520;150.798;2022-08-03T14:19:04;1.85;;;1.50;;
63394;SDS011;49531;-34.520;150.798;2022-08-03T14:21:32;1.75;;;1.60;;
63394;SDS011;49531;-34.520;150.798;2022-08-03T14:24:00;1.88;;;1.60;;
63394;SDS011;49531;-34.520;150.798;2022-08-03T14:26:27;1.63;;;1.50;;
63394;SDS011;49531;-34.520;150.798;2022-08-03T14:28:54;1.85;;;1.60;;
63394;SDS011;49531;-34.520;150.798;2022-08-03T14:31:21;2.80;;;1.70;;
63394;SDS011;49531;-34.520;150.798;2022-08-03T14:33:48;2.15;;;1.58;;
63394;SDS011;49531;-34.520;150.798;2022-08-03T14:36:15;1.92;;;1.50;;
63394;SDS011;49531;-34.520;150.798;2022-08-03T14:38:42;1.75;;;1.55;;
63394;SDS011;49531;-34.520;150.798;2022-08-03T14:41:10;2.30;;;1.60;;
63394;SDS011;49531;-34.520;150.798;2022-08-03T14:43:37;2.15;;;1.55;;
63394;SDS011;49531;-34.520;150.798;2022-08-03T14:46:04;1.85;;;1.50;;
63394;SDS011;49531;-34.520;150.798;2022-08-03T14:48:31;2.33;;;1.67;;
63394;SDS011;49531;-34.520;150.798;2022-08-03T14:50:59;1.77;;;1.50;;
63394;SDS011;49531;-34.520;150.798;2022-08-03T14:53:26;3.97;;;1.60;;
63394;SDS011;49531;-34.520;150.798;2022-08-03T14:55:54;2.17;;;1.65;;
63394;SDS011;49531;-34.520;150.798;2022-08-03T14:58:22;2.90;;;1.60;;
63394;SDS011;49531;-34.520;150.798;2022-08-03T15:00:53;1.77;;;1.45;;